sensor_id;sensor_type;location;lat;lon;timestamp;pressure;altitude;pressure_sealevel;temperature;humidity
32131;BME280;18639;50.716;7.086;2023-02-14T00:02:26;102292.84;;;5.73;100.00
32131;BME280;18639;50.716;7.086;2023-02-14T00:04:52;102300.59;;;5.67;100.00
32131;BME280;18639;50.716;7.086;2023-02-14T00:07:17;102290.44;;;5.61;100.00
32131;BME280;18639;50.716;7.086;2023-02-14T00:09:42;102295.59;;;5.56;100.00
32131;BME280;18639;50.716;7.086;2023-02-14T00:12:08;102302.56;;;5.48;100.00
32131;BME280;18639;50.716;7.086;2023-02-14T00:14:33;102274.56;;;5.31;100.00
32131;BME280;18639;50.716;7.086;2023-02-14T00:17:19;102296.66;;;5.41;100.00
32131;BME280;18639;50.716;7.086;2023-02-14T00:19:45;102289.88;;;5.34;100.00
32131;BME280;18639;50.716;7.086;2023-02-14T00:22:10;102287.44;;;5.27;100.00
32131;BME280;18639;50.716;7.086;2023-02-14T00:24:35;102272.97;;;5.23;100.00
32131;BME280;18639;50.716;7.086;2023-02-14T00:27:00;102281.50;;;5.20;100.00
32131;BME280;18639;50.716;7.086;2023-02-14T00:29:28;102304.47;;;5.31;100.00
32131;BME280;18639;50.716;7.086;2023-02-14T00:31:54;102278.84;;;5.29;100.00
32131;BME280;18639;50.716;7.086;2023-02-14T00:34:20;102288.97;;;5.40;100.00
32131;BME280;18639;50.716;7.086;2023-02-14T00:36:47;102285.53;;;5.44;100.00
32131;BME280;18639;50.716;7.086;2023-02-14T00:39:13;102274.44;;;5.40;100.00
32131;BME280;18639;50.716;7.086;2023-02-14T00:41:41;102271.78;;;5.49;100.00
32131;BME280;18639;50.716;7.086;2023-02-14T00:44:08;102278.56;;;5.52;100.00
32131;BME280;18639;50.716;7.086;2023-02-14T00:46:34;102275.88;;;5.63;100.00
32131;BME280;18639;50.716;7.086;2023-02-14T00:48:59;102284.34;;;5.68;100.00
32131;BME280;18639;50.716;7.086;2023-02-14T00:51:25;102281.06;;;5.58;100.00
32131;BME280;18639;50.716;7.086;2023-02-14T00:53:51;102281.06;;;5.57;100.00
32131;BME280;18639;50.716;7.086;2023-02-14T00:56:17;102269.22;;;5.49;100.00
32131;BME280;18639;50.716;7.086;2023-02-14T00:58:43;102257.47;;;5.33;100.00
32131;BME280;18639;50.716;7.086;2023-02-14T01:01:08;102279.63;;;5.37;100.00
32131;BME280;18639;50.716;7.086;2023-02-14T01:03:34;102267.78;;;5.27;100.00
32131;BME280;18639;50.716;7.086;2023-02-14T01:05:59;102269.53;;;5.22;100.00
32131;BME280;18639;50.716;7.086;2023-02-14T01:08:25;102265.34;;;5.14;100.00
32131;BME280;18639;50.716;7.086;2023-02-14T01:10:51;102262.91;;;5.03;100.00
32131;BME280;18639;50.716;7.086;2023-02-14T01:13:17;102261.25;;;4.97;100.00
32131;BME280;18639;50.716;7.086;2023-02-14T01:15:46;102264.72;;;4.92;100.00
32131;BME280;18639;50.716;7.086;2023-02-14T01:18:12;102263.06;;;4.89;100.00
32131;BME280;18639;50.716;7.086;2023-02-14T01:20:38;102246.16;;;4.75;100.00
32131;BME280;18639;50.716;7.086;2023-02-14T01:23:03;102270.00;;;4.78;100.00
32131;BME280;18639;50.716;7.086;2023-02-14T01:25:29;102247.88;;;4.71;100.00
32131;BME280;18639;50.716;7.086;2023-02-14T01:27:55;102252.28;;;4.58;100.00
32131;BME280;18639;50.716;7.086;2023-02-14T01:30:21;102262.47;;;4.63;100.00
32131;BME280;18639;50.716;7.086;2023-02-14T01:32:46;102267.59;;;4.61;100.00
32131;BME280;18639;50.716;7.086;2023-02-14T01:35:11;102265.09;;;4.55;100.00
32131;BME280;18639;50.716;7.086;2023-02-14T01:37:37;102270.22;;;4.55;100.00
32131;BME280;18639;50.716;7.086;2023-02-14T01:40:04;102275.31;;;4.58;100.00
32131;BME280;18639;50.716;7.086;2023-02-14T01:42:31;102267.59;;;4.61;100.00
32131;BME280;18639;50.716;7.086;2023-02-14T01:45:18;102269.34;;;4.58;100.00
32131;BME280;18639;50.716;7.086;2023-02-14T01:47:46;102259.97;;;4.55;100.00
32131;BME280;18639;50.716;7.086;2023-02-14T01:50:18;102264.28;;;4.49;100.00
32131;BME280;18639;50.716;7.086;2023-02-14T01:53:01;102258.41;;;4.42;100.00
32131;BME280;18639;50.716;7.086;2023-02-14T01:55:31;102265.22;;;4.43;100.00
32131;BME280;18639;50.716;7.086;2023-02-14T01:58:04;102253.28;;;4.39;100.00
32131;BME280;18639;50.716;7.086;2023-02-14T02:00:31;102255.88;;;4.36;100.00
32131;BME280;18639;50.716;7.086;2023-02-14T02:03:16;102251.56;;;4.40;100.00
32131;BME280;18639;50.716;7.086;2023-02-14T02:05:56;102253.28;;;4.39;100.00
32131;BME280;18639;50.716;7.086;2023-02-14T02:08:22;102260.09;;;4.40;100.00
32131;BME280;18639;50.716;7.086;2023-02-14T02:10:47;102256.72;;;4.35;100.00
32131;BME280;18639;50.716;7.086;2023-02-14T02:13:17;102256.72;;;4.35;100.00
32131;BME280;18639;50.716;7.086;2023-02-14T02:18:32;102255.88;;;4.33;100.00
32131;BME280;18639;50.716;7.086;2023-02-14T02:26:45;102252.47;;;4.37;100.00
32131;BME280;18639;50.716;7.086;2023-02-14T02:32:40;102251.66;;;4.32;100.00
32131;BME280;18639;50.716;7.086;2023-02-14T02:35:27;102235.50;;;4.22;100.00
32131;BME280;18639;50.716;7.086;2023-02-14T02:38:08;102244.88;;;4.25;100.00
32131;BME280;18639;50.716;7.086;2023-02-14T02:46:24;102242.41;;;4.13;100.00
32131;BME280;18639;50.716;7.086;2023-02-14T02:52:25;102243.28;;;4.10;100.00
32131;BME280;18639;50.716;7.086;2023-02-14T02:55:16;102241.63;;;4.02;100.00
32131;BME280;18639;50.716;7.086;2023-02-14T02:57:45;102248.44;;;4.06;100.00
32131;BME280;18639;50.716;7.086;2023-02-14T03:00:13;102230.59;;;3.98;100.00
32131;BME280;18639;50.716;7.086;2023-02-14T03:02:44;102239.91;;;4.04;100.00
32131;BME280;18639;50.716;7.086;2023-02-14T03:05:29;102233.19;;;3.94;100.00
32131;BME280;18639;50.716;7.086;2023-02-14T03:07:56;102214.50;;;3.84;100.00
32131;BME280;18639;50.716;7.086;2023-02-14T03:10:25;102241.66;;;3.96;100.00
32131;BME280;18639;50.716;7.086;2023-02-14T03:16:13;102233.19;;;3.94;100.00
32131;BME280;18639;50.716;7.086;2023-02-14T03:19:00;102246.75;;;4.05;100.00
32131;BME280;18639;50.716;7.086;2023-02-14T03:27:09;102231.97;;;4.39;100.00
32131;BME280;18639;50.716;7.086;2023-02-14T03:32:38;102235.00;;;4.77;100.00
32131;BME280;18639;50.716;7.086;2023-02-14T03:35:25;102234.03;;;4.89;100.00
32131;BME280;18639;50.716;7.086;2023-02-14T03:38:13;102230.56;;;4.96;100.00
32131;BME280;18639;50.716;7.086;2023-02-14T03:40:49;102246.63;;;5.10;100.00
32131;BME280;18639;50.716;7.086;2023-02-14T03:43:24;102244.00;;;5.13;100.00
32131;BME280;18639;50.716;7.086;2023-02-14T03:45:56;102255.88;;;5.23;100.00
32131;BME280;18639;50.716;7.086;2023-02-14T03:48:23;102249.78;;;5.32;100.00
32131;BME280;18639;50.716;7.086;2023-02-14T03:50:51;102244.59;;;5.36;100.00
32131;BME280;18639;50.716;7.086;2023-02-14T03:53:21;102235.19;;;5.38;100.00
32131;BME280;18639;50.716;7.086;2023-02-14T03:56:02;102247.09;;;5.42;100.00
32131;BME280;18639;50.716;7.086;2023-02-14T03:58:38;102243.66;;;5.43;100.00
32131;BME280;18639;50.716;7.086;2023-02-14T04:01:32;102241.03;;;5.49;100.00
32131;BME280;18639;50.716;7.086;2023-02-14T04:04:00;102241.03;;;5.48;100.00
32131;BME280;18639;50.716;7.086;2023-02-14T04:06:27;102233.34;;;5.46;100.00
32131;BME280;18639;50.716;7.086;2023-02-14T04:08:52;102231.69;;;5.42;100.00
32131;BME280;18639;50.716;7.086;2023-02-14T04:11:18;102220.66;;;5.37;100.00
32131;BME280;18639;50.716;7.086;2023-02-14T04:13:43;102224.00;;;5.42;100.00
32131;BME280;18639;50.716;7.086;2023-02-14T04:16:08;102241.03;;;5.46;100.00
32131;BME280;18639;50.716;7.086;2023-02-14T04:18:33;102235.00;;;5.50;100.00
32131;BME280;18639;50.716;7.086;2023-02-14T04:21:17;102219.78;;;5.38;100.00
32131;BME280;18639;50.716;7.086;2023-02-14T04:23:43;102225.63;;;5.49;100.00
32131;BME280;18639;50.716;7.086;2023-02-14T04:26:08;102231.69;;;5.42;100.00
32131;BME280;18639;50.716;7.086;2023-02-14T04:28:34;102227.34;;;5.47;100.00
32131;BME280;18639;50.716;7.086;2023-02-14T04:31:00;102223.09;;;5.45;100.00
32131;BME280;18639;50.716;7.086;2023-02-14T04:33:27;102214.81;;;5.26;100.00
32131;BME280;18639;50.716;7.086;2023-02-14T04:35:52;102210.56;;;5.24;100.00
32131;BME280;18639;50.716;7.086;2023-02-14T04:38:17;102216.47;;;5.30;100.00
32131;BME280;18639;50.716;7.086;2023-02-14T04:40:43;102208.84;;;5.24;100.00
32131;BME280;18639;50.716;7.086;2023-02-14T04:43:08;102196.88;;;5.25;100.00
32131;BME280;18639;50.716;7.086;2023-02-14T04:45:33;102219.88;;;5.32;100.00
32131;BME280;18639;50.716;7.086;2023-02-14T04:47:59;102219.00;;;5.33;100.00
32131;BME280;18639;50.716;7.086;2023-02-14T04:50:24;102204.63;;;5.23;100.00
32131;BME280;18639;50.716;7.086;2023-02-14T04:52:50;102216.53;;;5.27;100.00
32131;BME280;18639;50.716;7.086;2023-02-14T04:55:16;102206.34;;;5.23;100.00
32131;BME280;18639;50.716;7.086;2023-02-14T04:57:41;102211.41;;;5.24;100.00
32131;BME280;18639;50.716;7.086;2023-02-14T05:00:07;102208.84;;;5.24;100.00
32131;BME280;18639;50.716;7.086;2023-02-14T05:02:36;102211.41;;;5.24;100.00
32131;BME280;18639;50.716;7.086;2023-02-14T05:05:01;102195.28;;;5.18;100.00
32131;BME280;18639;50.716;7.086;2023-02-14T05:07:26;102191.03;;;5.18;100.00
32131;BME280;18639;50.716;7.086;2023-02-14T05:09:52;102204.56;;;5.26;100.00
32131;BME280;18639;50.716;7.086;2023-02-14T05:12:17;102209.69;;;5.26;100.00
32131;BME280;18639;50.716;7.086;2023-02-14T05:14:42;102221.59;;;5.30;100.00
32131;BME280;18639;50.716;7.086;2023-02-14T05:17:07;102191.75;;;5.25;100.00
32131;BME280;18639;50.716;7.086;2023-02-14T05:19:33;102201.16;;;5.27;100.00
32131;BME280;18639;50.716;7.086;2023-02-14T05:21:58;102176.53;;;5.14;100.00
32131;BME280;18639;50.716;7.086;2023-02-14T05:24:23;102193.47;;;5.26;100.00
32131;BME280;18639;50.716;7.086;2023-02-14T05:26:48;102191.03;;;5.18;100.00
32131;BME280;18639;50.716;7.086;2023-02-14T05:29:14;102185.13;;;5.08;100.00
32131;BME280;18639;50.716;7.086;2023-02-14T05:31:39;102195.25;;;5.19;100.00
32131;BME280;18639;50.716;7.086;2023-02-14T05:34:04;102190.16;;;5.18;100.00
32131;BME280;18639;50.716;7.086;2023-02-14T05:36:30;102188.41;;;5.21;100.00
32131;BME280;18639;50.716;7.086;2023-02-14T05:38:55;102192.69;;;5.19;100.00
32131;BME280;18639;50.716;7.086;2023-02-14T05:41:20;102180.78;;;5.15;100.00
32131;BME280;18639;50.716;7.086;2023-02-14T05:43:45;102188.47;;;5.17;100.00
32131;BME280;18639;50.716;7.086;2023-02-14T05:46:11;102183.41;;;5.12;100.00
32131;BME280;18639;50.716;7.086;2023-02-14T05:48:36;102183.41;;;5.11;100.00
32131;BME280;18639;50.716;7.086;2023-02-14T05:51:04;102175.78;;;5.06;100.00
32131;BME280;18639;50.716;7.086;2023-02-14T05:53:29;102169.03;;;4.97;100.00
32131;BME280;18639;50.716;7.086;2023-02-14T05:55:54;102139.47;;;4.74;100.00
32131;BME280;18639;50.716;7.086;2023-02-14T05:58:20;102176.72;;;4.99;100.00
32131;BME280;18639;50.716;7.086;2023-02-14T06:00:45;102194.59;;;5.03;100.00
32131;BME280;18639;50.716;7.086;2023-02-14T06:03:10;102191.16;;;5.06;100.00
32131;BME280;18639;50.716;7.086;2023-02-14T06:05:35;102194.72;;;4.93;100.00
32131;BME280;18639;50.716;7.086;2023-02-14T06:08:01;102204.88;;;5.00;100.00
32131;BME280;18639;50.716;7.086;2023-02-14T06:10:26;102187.03;;;4.93;100.00
32131;BME280;18639;50.716;7.086;2023-02-14T06:12:52;102196.38;;;4.97;100.00
32131;BME280;18639;50.716;7.086;2023-02-14T06:15:18;102198.06;;;4.98;100.00
32131;BME280;18639;50.716;7.086;2023-02-14T06:17:44;102201.50;;;4.97;100.00
32131;BME280;18639;50.716;7.086;2023-02-14T06:20:12;102199.84;;;4.93;100.00
32131;BME280;18639;50.716;7.086;2023-02-14T06:22:37;102198.13;;;4.92;100.00
32131;BME280;18639;50.716;7.086;2023-02-14T06:25:04;102188.75;;;4.92;100.00
32131;BME280;18639;50.716;7.086;2023-02-14T06:27:30;102199.81;;;4.96;100.00
32131;BME280;18639;50.716;7.086;2023-02-14T06:29:55;102194.78;;;4.87;100.00
32131;BME280;18639;50.716;7.086;2023-02-14T06:32:21;102205.78;;;4.96;100.00
32131;BME280;18639;50.716;7.086;2023-02-14T06:34:46;102189.75;;;4.81;100.00
32131;BME280;18639;50.716;7.086;2023-02-14T06:37:12;102211.84;;;4.91;100.00
32131;BME280;18639;50.716;7.086;2023-02-14T06:39:37;102189.75;;;4.81;100.00
32131;BME280;18639;50.716;7.086;2023-02-14T06:42:02;102208.50;;;4.83;100.00
32131;BME280;18639;50.716;7.086;2023-02-14T06:44:27;102204.19;;;4.86;100.00
32131;BME280;18639;50.716;7.086;2023-02-14T06:46:53;102194.78;;;4.87;100.00
32131;BME280;18639;50.716;7.086;2023-02-14T06:49:18;102215.19;;;4.94;100.00
32131;BME280;18639;50.716;7.086;2023-02-14T06:51:43;102220.38;;;4.91;100.00
32131;BME280;18639;50.716;7.086;2023-02-14T06:54:08;102223.72;;;4.95;100.00
32131;BME280;18639;50.716;7.086;2023-02-14T06:56:34;102211.09;;;4.80;100.00
32131;BME280;18639;50.716;7.086;2023-02-14T06:58:59;102224.66;;;4.88;100.00
32131;BME280;18639;50.716;7.086;2023-02-14T07:01:24;102208.50;;;4.83;100.00
32131;BME280;18639;50.716;7.086;2023-02-14T07:03:50;102216.97;;;4.88;100.00
32131;BME280;18639;50.716;7.086;2023-02-14T07:06:15;102201.66;;;4.82;100.00
32131;BME280;18639;50.716;7.086;2023-02-14T07:08:40;102221.19;;;4.93;100.00
32131;BME280;18639;50.716;7.086;2023-02-14T07:11:06;102205.88;;;4.87;100.00
32131;BME280;18639;50.716;7.086;2023-02-14T07:13:31;102208.44;;;4.89;100.00
32131;BME280;18639;50.716;7.086;2023-02-14T07:15:57;102203.34;;;4.86;100.00
32131;BME280;18639;50.716;7.086;2023-02-14T07:18:22;102163.44;;;4.65;100.00
32131;BME280;18639;50.716;7.086;2023-02-14T07:20:48;102203.34;;;4.86;100.00
32131;BME280;18639;50.716;7.086;2023-02-14T07:23:14;102214.31;;;4.97;100.00
32131;BME280;18639;50.716;7.086;2023-02-14T07:25:39;102201.53;;;4.94;100.00
32131;BME280;18639;50.716;7.086;2023-02-14T07:28:05;102201.44;;;5.03;100.00
32131;BME280;18639;50.716;7.086;2023-02-14T07:30:30;102188.75;;;4.92;100.00
32131;BME280;18639;50.716;7.086;2023-02-14T07:32:57;102195.50;;;5.01;100.00
32131;BME280;18639;50.716;7.086;2023-02-14T07:35:22;102181.00;;;4.97;100.00
32131;BME280;18639;50.716;7.086;2023-02-14T07:37:49;102206.47;;;5.12;100.00
32131;BME280;18639;50.716;7.086;2023-02-14T07:40:14;102197.13;;;5.06;100.00
32131;BME280;18639;50.716;7.086;2023-02-14T07:42:40;102208.13;;;5.16;100.00
32131;BME280;18639;50.716;7.086;2023-02-14T07:45:05;102192.81;;;5.10;100.00
32131;BME280;18639;50.716;7.086;2023-02-14T07:47:31;102210.63;;;5.21;100.00
32131;BME280;18639;50.716;7.086;2023-02-14T07:49:57;102206.41;;;5.18;100.00
32131;BME280;18639;50.716;7.086;2023-02-14T07:52:22;102219.81;;;5.35;100.00
32131;BME280;18639;50.716;7.086;2023-02-14T07:54:48;102207.03;;;5.34;100.00
32131;BME280;18639;50.716;7.086;2023-02-14T07:57:13;102211.13;;;5.48;100.00
32131;BME280;18639;50.716;7.086;2023-02-14T07:59:38;102172.03;;;5.31;100.00
32131;BME280;18639;50.716;7.086;2023-02-14T08:02:03;102203.28;;;5.58;100.00
32131;BME280;18639;50.716;7.086;2023-02-14T08:04:29;102198.91;;;5.66;100.00
32131;BME280;18639;50.716;7.086;2023-02-14T08:06:55;102195.13;;;5.91;100.00
32131;BME280;18639;50.716;7.086;2023-02-14T08:09:20;102189.31;;;6.33;100.00
32131;BME280;18639;50.716;7.086;2023-02-14T08:11:50;102200.09;;;6.98;100.00
32131;BME280;18639;50.716;7.086;2023-02-14T08:14:35;102215.31;;;7.86;100.00
32131;BME280;18639;50.716;7.086;2023-02-14T08:17:00;102195.78;;;8.13;100.00
32131;BME280;18639;50.716;7.086;2023-02-14T08:19:26;102205.59;;;8.66;100.00
32131;BME280;18639;50.716;7.086;2023-02-14T08:21:51;102215.94;;;9.26;98.51
32131;BME280;18639;50.716;7.086;2023-02-14T08:24:16;102206.69;;;9.49;95.57
32131;BME280;18639;50.716;7.086;2023-02-14T08:26:42;102214.00;;;9.90;93.16
32131;BME280;18639;50.716;7.086;2023-02-14T08:29:07;102199.13;;;9.98;92.21
32131;BME280;18639;50.716;7.086;2023-02-14T08:31:32;102191.25;;;10.01;91.58
32131;BME280;18639;50.716;7.086;2023-02-14T08:33:57;102213.59;;;10.30;90.72
32131;BME280;18639;50.716;7.086;2023-02-14T08:36:23;102197.38;;;10.51;90.24
32131;BME280;18639;50.716;7.086;2023-02-14T08:38:48;102204.72;;;10.87;85.57
32131;BME280;18639;50.716;7.086;2023-02-14T08:41:14;102211.06;;;11.02;83.09
32131;BME280;18639;50.716;7.086;2023-02-14T08:43:40;102192.78;;;11.29;78.25
32131;BME280;18639;50.716;7.086;2023-02-14T08:46:05;102200.03;;;11.65;76.33
32131;BME280;18639;50.716;7.086;2023-02-14T08:48:31;102211.31;;;11.64;73.08
32131;BME280;18639;50.716;7.086;2023-02-14T08:50:56;102212.63;;;11.52;73.79
32131;BME280;18639;50.716;7.086;2023-02-14T08:53:21;102166.56;;;11.82;71.15
32131;BME280;18639;50.716;7.086;2023-02-14T08:55:47;102206.38;;;12.82;67.98
32131;BME280;18639;50.716;7.086;2023-02-14T08:58:13;102205.25;;;13.27;62.93
32131;BME280;18639;50.716;7.086;2023-02-14T09:00:38;102191.56;;;13.61;61.38
32131;BME280;18639;50.716;7.086;2023-02-14T09:03:03;102220.41;;;14.44;58.41
32131;BME280;18639;50.716;7.086;2023-02-14T09:05:29;102213.91;;;14.85;56.54
32131;BME280;18639;50.716;7.086;2023-02-14T09:07:54;102161.97;;;14.99;55.23
32131;BME280;18639;50.716;7.086;2023-02-14T09:10:20;102203.94;;;15.57;52.78
32131;BME280;18639;50.716;7.086;2023-02-14T09:12:46;102206.00;;;15.51;52.58
32131;BME280;18639;50.716;7.086;2023-02-14T09:15:11;102202.97;;;15.90;52.23
32131;BME280;18639;50.716;7.086;2023-02-14T09:17:37;102199.34;;;15.45;51.20
32131;BME280;18639;50.716;7.086;2023-02-14T09:20:09;102193.72;;;15.84;51.58
32131;BME280;18639;50.716;7.086;2023-02-14T09:22:35;102193.75;;;15.22;52.18
32131;BME280;18639;50.716;7.086;2023-02-14T09:25:01;102191.81;;;15.25;51.16
32131;BME280;18639;50.716;7.086;2023-02-14T09:27:26;102204.41;;;15.17;52.51
32131;BME280;18639;50.716;7.086;2023-02-14T09:29:52;102203.09;;;14.60;53.23
32131;BME280;18639;50.716;7.086;2023-02-14T09:32:17;102196.03;;;13.76;56.08
32131;BME280;18639;50.716;7.086;2023-02-14T09:34:42;102187.13;;;13.06;56.70
32131;BME280;18639;50.716;7.086;2023-02-14T09:37:12;102196.47;;;13.48;57.63
32131;BME280;18639;50.716;7.086;2023-02-14T09:39:56;102179.72;;;13.36;57.95
32131;BME280;18639;50.716;7.086;2023-02-14T09:42:44;102204.00;;;13.17;58.94
32131;BME280;18639;50.716;7.086;2023-02-14T09:45:12;102205.13;;;12.32;61.57
32131;BME280;18639;50.716;7.086;2023-02-14T09:47:54;102199.09;;;11.89;64.98
32131;BME280;18639;50.716;7.086;2023-02-14T09:50:37;102186.88;;;11.93;65.90
32131;BME280;18639;50.716;7.086;2023-02-14T09:53:28;102170.16;;;11.34;68.47
32131;BME280;18639;50.716;7.086;2023-02-14T09:55:56;102190.88;;;11.56;68.61
32131;BME280;18639;50.716;7.086;2023-02-14T09:58:35;102186.94;;;11.48;68.19
32131;BME280;18639;50.716;7.086;2023-02-14T10:01:14;102174.75;;;11.71;67.43
32131;BME280;18639;50.716;7.086;2023-02-14T10:06:47;102185.28;;;12.51;63.80
32131;BME280;18639;50.716;7.086;2023-02-14T10:09:50;102191.09;;;13.15;63.34
32131;BME280;18639;50.716;7.086;2023-02-14T10:12:34;102177.56;;;13.63;59.50
32131;BME280;18639;50.716;7.086;2023-02-14T10:15:10;102179.63;;;13.93;58.02
32131;BME280;18639;50.716;7.086;2023-02-14T10:17:43;102169.97;;;14.12;58.15
32131;BME280;18639;50.716;7.086;2023-02-14T10:20:36;102170.06;;;12.82;60.38
32131;BME280;18639;50.716;7.086;2023-02-14T10:23:32;102177.41;;;12.34;61.36
32131;BME280;18639;50.716;7.086;2023-02-14T10:26:01;102177.53;;;11.89;64.60
32131;BME280;18639;50.716;7.086;2023-02-14T10:28:45;102160.00;;;11.30;67.45
32131;BME280;18639;50.716;7.086;2023-02-14T10:33:59;102159.91;;;10.38;75.35
32131;BME280;18639;50.716;7.086;2023-02-14T10:45:38;102142.91;;;10.31;80.02
32131;BME280;18639;50.716;7.086;2023-02-14T10:51:14;102143.91;;;10.27;79.71
32131;BME280;18639;50.716;7.086;2023-02-14T10:54:01;102133.63;;;9.99;80.44
32131;BME280;18639;50.716;7.086;2023-02-14T10:56:41;102125.16;;;9.96;80.72
32131;BME280;18639;50.716;7.086;2023-02-14T10:59:24;102141.81;;;9.87;80.16
32131;BME280;18639;50.716;7.086;2023-02-14T11:01:53;102134.91;;;9.88;80.60
32131;BME280;18639;50.716;7.086;2023-02-14T11:04:21;102138.75;;;10.01;80.95
32131;BME280;18639;50.716;7.086;2023-02-14T11:06:47;102131.41;;;9.89;81.68
32131;BME280;18639;50.716;7.086;2023-02-14T11:09:15;102130.63;;;9.87;82.16
32131;BME280;18639;50.716;7.086;2023-02-14T11:11:54;102127.91;;;9.91;82.16
32131;BME280;18639;50.716;7.086;2023-02-14T11:14:22;102120.50;;;9.81;81.49
32131;BME280;18639;50.716;7.086;2023-02-14T11:16:48;102110.63;;;9.67;81.63
32131;BME280;18639;50.716;7.086;2023-02-14T11:21:48;102103.31;;;9.80;82.02
32131;BME280;18639;50.716;7.086;2023-02-14T11:24:36;102115.00;;;9.91;80.65
32131;BME280;18639;50.716;7.086;2023-02-14T11:32:11;102084.03;;;9.65;81.06
32131;BME280;18639;50.716;7.086;2023-02-14T11:34:39;102101.53;;;9.82;81.85
32131;BME280;18639;50.716;7.086;2023-02-14T11:37:23;102104.31;;;9.76;81.77
32131;BME280;18639;50.716;7.086;2023-02-14T11:39:50;102087.34;;;9.68;81.48
32131;BME280;18639;50.716;7.086;2023-02-14T11:45:00;102091.09;;;9.85;81.95
32131;BME280;18639;50.716;7.086;2023-02-14T11:47:29;102074.84;;;9.83;81.29
32131;BME280;18639;50.716;7.086;2023-02-14T11:50:03;102084.81;;;9.93;81.23
32131;BME280;18639;50.716;7.086;2023-02-14T11:52:30;102070.94;;;9.96;81.85
32131;BME280;18639;50.716;7.086;2023-02-14T11:54:57;102072.41;;;10.03;82.33
32131;BME280;18639;50.716;7.086;2023-02-14T11:57:28;102054.53;;;9.97;80.53
32131;BME280;18639;50.716;7.086;2023-02-14T11:59:58;102040.09;;;9.91;80.61
32131;BME280;18639;50.716;7.086;2023-02-14T12:02:47;102060.69;;;10.19;81.27
32131;BME280;18639;50.716;7.086;2023-02-14T12:05:20;102048.50;;;9.98;79.78
32131;BME280;18639;50.716;7.086;2023-02-14T12:07:49;102051.97;;;9.97;79.88
32131;BME280;18639;50.716;7.086;2023-02-14T12:10:21;102059.72;;;9.97;80.13
32131;BME280;18639;50.716;7.086;2023-02-14T12:12:57;102046.00;;;9.95;79.42
32131;BME280;18639;50.716;7.086;2023-02-14T12:15:30;102015.13;;;9.92;79.47
32131;BME280;18639;50.716;7.086;2023-02-14T12:26:25;102025.63;;;10.10;78.74
32131;BME280;18639;50.716;7.086;2023-02-14T12:31:22;102023.91;;;10.11;77.60
32131;BME280;18639;50.716;7.086;2023-02-14T12:33:47;102014.72;;;10.04;77.61
32131;BME280;18639;50.716;7.086;2023-02-14T12:51:58;102000.03;;;10.29;76.83
32131;BME280;18639;50.716;7.086;2023-02-14T13:35:54;101816.31;;;9.68;75.67
32131;BME280;18639;50.716;7.086;2023-02-14T13:38:23;101875.84;;;10.10;74.68
32131;BME280;18639;50.716;7.086;2023-02-14T13:41:12;101825.94;;;9.65;75.25
32131;BME280;18639;50.716;7.086;2023-02-14T13:54:29;101800.66;;;9.73;75.43
32131;BME280;18639;50.716;7.086;2023-02-14T14:00:54;101837.28;;;10.06;76.39
32131;BME280;18639;50.716;7.086;2023-02-14T14:07:18;101901.13;;;10.69;76.74
32131;BME280;18639;50.716;7.086;2023-02-14T14:38:14;101833.41;;;10.39;75.97
32131;BME280;18639;50.716;7.086;2023-02-14T14:41:07;101902.69;;;10.73;76.80
32131;BME280;18639;50.716;7.086;2023-02-14T14:43:37;101831.66;;;10.40;78.05
32131;BME280;18639;50.716;7.086;2023-02-14T14:46:12;101774.00;;;9.94;78.16
32131;BME280;18639;50.716;7.086;2023-02-14T14:49:15;101885.56;;;10.71;76.86
32131;BME280;18639;50.716;7.086;2023-02-14T14:55:39;101876.25;;;10.67;76.88
32131;BME280;18639;50.716;7.086;2023-02-14T14:58:37;101808.38;;;10.20;76.58
32131;BME280;18639;50.716;7.086;2023-02-14T15:01:33;101762.94;;;9.92;76.79
32131;BME280;18639;50.716;7.086;2023-02-14T15:04:32;101846.19;;;10.42;77.21
32131;BME280;18639;50.716;7.086;2023-02-14T15:07:23;101787.44;;;10.04;77.32
32131;BME280;18639;50.716;7.086;2023-02-14T15:09:51;101761.53;;;9.84;76.49
32131;BME280;18639;50.716;7.086;2023-02-14T15:12:22;101868.06;;;10.55;77.61
32131;BME280;18639;50.716;7.086;2023-02-14T15:15:10;101825.72;;;10.16;78.10
32131;BME280;18639;50.716;7.086;2023-02-14T15:17:37;101858.34;;;10.40;77.68
32131;BME280;18639;50.716;7.086;2023-02-14T15:23:47;101860.50;;;10.29;79.70
32131;BME280;18639;50.716;7.086;2023-02-14T15:26:18;101815.28;;;9.96;80.14
32131;BME280;18639;50.716;7.086;2023-02-14T15:29:17;101830.78;;;9.96;78.86
32131;BME280;18639;50.716;7.086;2023-02-14T15:35:51;101749.75;;;9.32;79.41
32131;BME280;18639;50.716;7.086;2023-02-14T15:38:52;101809.25;;;9.73;80.02
32131;BME280;18639;50.716;7.086;2023-02-14T15:41:59;101870.19;;;10.01;80.75
32131;BME280;18639;50.716;7.086;2023-02-14T15:48:51;101874.13;;;9.88;79.82
32131;BME280;18639;50.716;7.086;2023-02-14T15:51:55;101820.19;;;9.57;80.59
32131;BME280;18639;50.716;7.086;2023-02-14T16:04:17;101747.44;;;9.01;81.14
32131;BME280;18639;50.716;7.086;2023-02-14T16:15:56;101724.56;;;8.67;83.54
32131;BME280;18639;50.716;7.086;2023-02-14T16:18:50;101845.81;;;9.38;83.40
32131;BME280;18639;50.716;7.086;2023-02-14T16:21:27;101864.72;;;9.39;83.72
32131;BME280;18639;50.716;7.086;2023-02-14T16:26:31;101866.72;;;9.30;84.14
32131;BME280;18639;50.716;7.086;2023-02-14T16:28:56;101840.69;;;9.13;83.49
32131;BME280;18639;50.716;7.086;2023-02-14T16:31:22;101838.38;;;9.06;85.58
32131;BME280;18639;50.716;7.086;2023-02-14T16:33:49;101848.47;;;9.12;86.27
32131;BME280;18639;50.716;7.086;2023-02-14T16:36:32;101861.38;;;9.12;85.31
32131;BME280;18639;50.716;7.086;2023-02-14T16:39:01;101855.44;;;9.08;86.92
32131;BME280;18639;50.716;7.086;2023-02-14T16:41:27;101865.84;;;9.07;87.38
32131;BME280;18639;50.716;7.086;2023-02-14T16:43:54;101841.53;;;8.87;88.06